sensor_id;sensor_type;location;lat;lon;timestamp;P1;durP1;ratioP1;P2;durP2;ratioP2
53479;SDS011;56133;51.012;-1.648;2022-11-20T00:00:56;53.25;;;25.98;;
53479;SDS011;56133;51.012;-1.648;2022-11-20T00:03:22;60.88;;;28.42;;
53479;SDS011;56133;51.012;-1.648;2022-11-20T00:05:48;59.08;;;27.58;;
53479;SDS011;56133;51.012;-1.648;2022-11-20T00:08:13;53.85;;;26.63;;
53479;SDS011;56133;51.012;-1.648;2022-11-20T00:10:39;51.65;;;28.05;;
53479;SDS011;56133;51.012;-1.648;2022-11-20T00:13:05;48.97;;;26.55;;
53479;SDS011;56133;51.012;-1.648;2022-11-20T00:15:32;53.22;;;27.88;;
53479;SDS011;56133;51.012;-1.648;2022-11-20T00:17:57;53.60;;;27.20;;
53479;SDS011;56133;51.012;-1.648;2022-11-20T00:20:23;51.88;;;27.73;;
53479;SDS011;56133;51.012;-1.648;2022-11-20T00:22:49;51.88;;;28.75;;
53479;SDS011;56133;51.012;-1.648;2022-11-20T00:25:14;57.22;;;29.73;;
53479;SDS011;56133;51.012;-1.648;2022-11-20T00:27:40;55.08;;;27.98;;
53479;SDS011;56133;51.012;-1.648;2022-11-20T00:30:06;58.30;;;29.77;;
53479;SDS011;56133;51.012;-1.648;2022-11-20T00:32:32;48.40;;;25.58;;
53479;SDS011;56133;51.012;-1.648;2022-11-20T00:34:57;53.08;;;26.25;;
53479;SDS011;56133;51.012;-1.648;2022-11-20T00:37:23;55.13;;;28.65;;
53479;SDS011;56133;51.012;-1.648;2022-11-20T00:39:48;50.28;;;26.30;;
53479;SDS011;56133;51.012;-1.648;2022-11-20T00:42:13;59.85;;;30.42;;
53479;SDS011;56133;51.012;-1.648;2022-11-20T00:44:39;58.25;;;28.65;;
53479;SDS011;56133;51.012;-1.648;2022-11-20T00:47:04;56.50;;;27.23;;
53479;SDS011;56133;51.012;-1.648;2022-11-20T00:49:30;53.50;;;26.88;;
53479;SDS011;56133;51.012;-1.648;2022-11-20T00:51:55;56.65;;;27.45;;
53479;SDS011;56133;51.012;-1.648;2022-11-20T00:54:21;54.83;;;28.15;;
53479;SDS011;56133;51.012;-1.648;2022-11-20T00:56:46;56.83;;;29.25;;
53479;SDS011;56133;51.012;-1.648;2022-11-20T00:59:12;57.67;;;29.40;;
53479;SDS011;56133;51.012;-1.648;2022-11-20T01:01:37;53.92;;;31.48;;
53479;SDS011;56133;51.012;-1.648;2022-11-20T01:04:03;56.53;;;29.98;;
53479;SDS011;56133;51.012;-1.648;2022-11-20T01:06:30;58.10;;;30.55;;
53479;SDS011;56133;51.012;-1.648;2022-11-20T01:08:58;51.92;;;28.92;;
53479;SDS011;56133;51.012;-1.648;2022-11-20T01:11:26;58.08;;;31.20;;
53479;SDS011;56133;51.012;-1.648;2022-11-20T01:13:57;55.58;;;30.35;;
53479;SDS011;56133;51.012;-1.648;2022-11-20T01:16:27;56.33;;;29.45;;
53479;SDS011;56133;51.012;-1.648;2022-11-20T01:18:58;55.67;;;29.40;;
53479;SDS011;56133;51.012;-1.648;2022-11-20T01:21:30;62.55;;;32.40;;
53479;SDS011;56133;51.012;-1.648;2022-11-20T01:23:58;56.75;;;33.05;;
53479;SDS011;56133;51.012;-1.648;2022-11-20T01:26:24;64.20;;;32.03;;
53479;SDS011;56133;51.012;-1.648;2022-11-20T01:28:51;61.75;;;32.50;;
53479;SDS011;56133;51.012;-1.648;2022-11-20T01:31:20;61.05;;;30.83;;
53479;SDS011;56133;51.012;-1.648;2022-11-20T01:33:52;51.38;;;26.52;;
53479;SDS011;56133;51.012;-1.648;2022-11-20T01:36:20;49.63;;;27.05;;
53479;SDS011;56133;51.012;-1.648;2022-11-20T01:38:46;54.88;;;27.52;;
53479;SDS011;56133;51.012;-1.648;2022-11-20T01:41:13;53.38;;;28.27;;
53479;SDS011;56133;51.012;-1.648;2022-11-20T01:44:00;52.22;;;26.05;;
53479;SDS011;56133;51.012;-1.648;2022-11-20T01:46:26;48.45;;;27.38;;
53479;SDS011;56133;51.012;-1.648;2022-11-20T01:51:41;44.78;;;26.08;;
53479;SDS011;56133;51.012;-1.648;2022-11-20T01:54:13;47.70;;;25.65;;
53479;SDS011;56133;51.012;-1.648;2022-11-20T01:59:11;77.90;;;35.35;;
53479;SDS011;56133;51.012;-1.648;2022-11-20T02:01:39;56.55;;;28.50;;
53479;SDS011;56133;51.012;-1.648;2022-11-20T02:04:05;45.47;;;23.52;;
53479;SDS011;56133;51.012;-1.648;2022-11-20T02:06:38;47.67;;;24.08;;
53479;SDS011;56133;51.012;-1.648;2022-11-20T02:09:07;43.38;;;22.25;;
53479;SDS011;56133;51.012;-1.648;2022-11-20T02:11:33;43.22;;;24.38;;
53479;SDS011;56133;51.012;-1.648;2022-11-20T02:13:58;48.40;;;26.35;;
53479;SDS011;56133;51.012;-1.648;2022-11-20T02:16:31;55.72;;;30.08;;
53479;SDS011;56133;51.012;-1.648;2022-11-20T02:19:01;46.38;;;25.42;;
53479;SDS011;56133;51.012;-1.648;2022-11-20T02:24:17;50.03;;;29.60;;
53479;SDS011;56133;51.012;-1.648;2022-11-20T02:26:47;42.92;;;23.63;;
53479;SDS011;56133;51.012;-1.648;2022-11-20T02:29:32;44.67;;;25.73;;
53479;SDS011;56133;51.012;-1.648;2022-11-20T02:32:02;52.33;;;26.42;;
53479;SDS011;56133;51.012;-1.648;2022-11-20T02:34:28;49.72;;;27.27;;
53479;SDS011;56133;51.012;-1.648;2022-11-20T02:36:53;42.53;;;22.33;;
53479;SDS011;56133;51.012;-1.648;2022-11-20T02:39:20;46.90;;;25.45;;
53479;SDS011;56133;51.012;-1.648;2022-11-20T02:41:49;39.47;;;22.42;;
53479;SDS011;56133;51.012;-1.648;2022-11-20T02:44:17;40.08;;;22.83;;
53479;SDS011;56133;51.012;-1.648;2022-11-20T02:46:43;34.05;;;18.65;;
53479;SDS011;56133;51.012;-1.648;2022-11-20T02:49:08;34.67;;;19.83;;
53479;SDS011;56133;51.012;-1.648;2022-11-20T02:51:34;37.30;;;19.52;;
53479;SDS011;56133;51.012;-1.648;2022-11-20T02:53:59;35.63;;;19.17;;
53479;SDS011;56133;51.012;-1.648;2022-11-20T02:56:25;44.90;;;21.33;;
53479;SDS011;56133;51.012;-1.648;2022-11-20T02:58:50;31.08;;;18.05;;
53479;SDS011;56133;51.012;-1.648;2022-11-20T03:01:16;29.20;;;16.27;;
53479;SDS011;56133;51.012;-1.648;2022-11-20T03:03:41;28.20;;;15.50;;
53479;SDS011;56133;51.012;-1.648;2022-11-20T03:06:07;29.65;;;15.57;;
53479;SDS011;56133;51.012;-1.648;2022-11-20T03:08:33;36.03;;;18.70;;
53479;SDS011;56133;51.012;-1.648;2022-11-20T03:11:02;34.38;;;17.63;;
53479;SDS011;56133;51.012;-1.648;2022-11-20T03:13:29;26.63;;;16.35;;
53479;SDS011;56133;51.012;-1.648;2022-11-20T03:15:54;27.40;;;15.00;;
53479;SDS011;56133;51.012;-1.648;2022-11-20T03:18:20;29.83;;;17.30;;
53479;SDS011;56133;51.012;-1.648;2022-11-20T03:20:45;29.52;;;16.35;;
53479;SDS011;56133;51.012;-1.648;2022-11-20T03:23:11;31.50;;;16.52;;
53479;SDS011;56133;51.012;-1.648;2022-11-20T03:25:36;33.20;;;14.73;;
53479;SDS011;56133;51.012;-1.648;2022-11-20T03:28:01;27.88;;;15.27;;
53479;SDS011;56133;51.012;-1.648;2022-11-20T03:30:27;25.35;;;13.85;;
53479;SDS011;56133;51.012;-1.648;2022-11-20T03:32:53;27.45;;;13.60;;
53479;SDS011;56133;51.012;-1.648;2022-11-20T03:35:19;27.60;;;14.68;;
53479;SDS011;56133;51.012;-1.648;2022-11-20T03:37:44;21.45;;;13.30;;
53479;SDS011;56133;51.012;-1.648;2022-11-20T03:40:10;23.83;;;10.82;;
53479;SDS011;56133;51.012;-1.648;2022-11-20T03:42:36;20.40;;;10.18;;
53479;SDS011;56133;51.012;-1.648;2022-11-20T03:45:11;12.52;;;6.35;;
53479;SDS011;56133;51.012;-1.648;2022-11-20T03:47:41;16.67;;;4.68;;
53479;SDS011;56133;51.012;-1.648;2022-11-20T03:50:07;17.00;;;5.75;;
53479;SDS011;56133;51.012;-1.648;2022-11-20T03:52:33;12.57;;;4.68;;
53479;SDS011;56133;51.012;-1.648;2022-11-20T03:54:58;13.00;;;4.10;;
53479;SDS011;56133;51.012;-1.648;2022-11-20T03:57:24;15.05;;;3.78;;
53479;SDS011;56133;51.012;-1.648;2022-11-20T03:59:49;7.28;;;2.72;;
53479;SDS011;56133;51.012;-1.648;2022-11-20T04:02:14;13.52;;;2.50;;
53479;SDS011;56133;51.012;-1.648;2022-11-20T04:04:40;9.32;;;2.17;;
53479;SDS011;56133;51.012;-1.648;2022-11-20T04:07:05;6.97;;;2.15;;
53479;SDS011;56133;51.012;-1.648;2022-11-20T04:09:30;6.38;;;2.50;;
53479;SDS011;56133;51.012;-1.648;2022-11-20T04:11:56;7.88;;;2.45;;
53479;SDS011;56133;51.012;-1.648;2022-11-20T04:14:21;13.52;;;6.75;;
53479;SDS011;56133;51.012;-1.648;2022-11-20T04:16:47;14.23;;;7.22;;
53479;SDS011;56133;51.012;-1.648;2022-11-20T04:19:13;16.52;;;8.55;;
53479;SDS011;56133;51.012;-1.648;2022-11-20T04:21:41;14.82;;;8.55;;
53479;SDS011;56133;51.012;-1.648;2022-11-20T04:24:07;15.57;;;8.60;;
53479;SDS011;56133;51.012;-1.648;2022-11-20T04:26:33;21.63;;;9.40;;
53479;SDS011;56133;51.012;-1.648;2022-11-20T04:28:59;13.98;;;7.10;;
53479;SDS011;56133;51.012;-1.648;2022-11-20T04:31:30;11.75;;;5.72;;
53479;SDS011;56133;51.012;-1.648;2022-11-20T04:34:01;7.07;;;2.55;;
53479;SDS011;56133;51.012;-1.648;2022-11-20T04:36:29;12.40;;;1.15;;
53479;SDS011;56133;51.012;-1.648;2022-11-20T04:38:56;1.88;;;0.77;;
53479;SDS011;56133;51.012;-1.648;2022-11-20T04:41:24;8.90;;;0.73;;
53479;SDS011;56133;51.012;-1.648;2022-11-20T04:43:52;3.40;;;0.75;;
53479;SDS011;56133;51.012;-1.648;2022-11-20T04:46:24;4.57;;;0.70;;
53479;SDS011;56133;51.012;-1.648;2022-11-20T04:48:50;4.70;;;0.98;;
53479;SDS011;56133;51.012;-1.648;2022-11-20T04:51:15;4.00;;;0.93;;
53479;SDS011;56133;51.012;-1.648;2022-11-20T04:53:41;4.03;;;0.90;;
53479;SDS011;56133;51.012;-1.648;2022-11-20T04:56:08;1.80;;;0.52;;
53479;SDS011;56133;51.012;-1.648;2022-11-20T04:58:35;3.67;;;0.80;;
53479;SDS011;56133;51.012;-1.648;2022-11-20T05:01:20;2.83;;;0.93;;
53479;SDS011;56133;51.012;-1.648;2022-11-20T05:03:48;1.45;;;0.70;;
53479;SDS011;56133;51.012;-1.648;2022-11-20T05:06:15;4.88;;;0.70;;
53479;SDS011;56133;51.012;-1.648;2022-11-20T05:08:41;1.45;;;0.70;;
53479;SDS011;56133;51.012;-1.648;2022-11-20T05:11:08;3.60;;;0.63;;
53479;SDS011;56133;51.012;-1.648;2022-11-20T05:13:39;5.80;;;0.70;;
53479;SDS011;56133;51.012;-1.648;2022-11-20T05:16:08;1.45;;;0.30;;
53479;SDS011;56133;51.012;-1.648;2022-11-20T05:18:36;1.95;;;0.20;;
53479;SDS011;56133;51.012;-1.648;2022-11-20T05:21:02;1.25;;;0.20;;
53479;SDS011;56133;51.012;-1.648;2022-11-20T05:23:29;1.98;;;0.40;;
53479;SDS011;56133;51.012;-1.648;2022-11-20T05:25:56;1.17;;;0.13;;
53479;SDS011;56133;51.012;-1.648;2022-11-20T05:28:22;0.82;;;0.20;;
53479;SDS011;56133;51.012;-1.648;2022-11-20T05:30:48;1.48;;;0.10;;
53479;SDS011;56133;51.012;-1.648;2022-11-20T05:33:14;0.40;;;0.10;;
53479;SDS011;56133;51.012;-1.648;2022-11-20T05:35:40;0.90;;;0.10;;
53479;SDS011;56133;51.012;-1.648;2022-11-20T05:38:06;1.23;;;0.10;;
53479;SDS011;56133;51.012;-1.648;2022-11-20T05:40:31;1.10;;;0.10;;
53479;SDS011;56133;51.012;-1.648;2022-11-20T05:42:57;0.20;;;0.10;;
53479;SDS011;56133;51.012;-1.648;2022-11-20T05:45:22;2.35;;;0.10;;
53479;SDS011;56133;51.012;-1.648;2022-11-20T05:47:48;1.65;;;0.10;;
53479;SDS011;56133;51.012;-1.648;2022-11-20T05:50:14;1.10;;;0.17;;
53479;SDS011;56133;51.012;-1.648;2022-11-20T05:52:40;1.17;;;0.10;;
53479;SDS011;56133;51.012;-1.648;2022-11-20T05:55:05;0.43;;;0.10;;
53479;SDS011;56133;51.012;-1.648;2022-11-20T05:57:31;1.30;;;0.10;;
53479;SDS011;56133;51.012;-1.648;2022-11-20T05:59:57;2.85;;;0.15;;
53479;SDS011;56133;51.012;-1.648;2022-11-20T06:02:22;2.13;;;0.20;;
53479;SDS011;56133;51.012;-1.648;2022-11-20T06:04:48;2.95;;;0.30;;
53479;SDS011;56133;51.012;-1.648;2022-11-20T06:07:13;1.67;;;0.20;;
53479;SDS011;56133;51.012;-1.648;2022-11-20T06:09:39;2.03;;;0.50;;
53479;SDS011;56133;51.012;-1.648;2022-11-20T06:12:04;1.20;;;0.50;;
53479;SDS011;56133;51.012;-1.648;2022-11-20T06:14:30;4.78;;;0.68;;
53479;SDS011;56133;51.012;-1.648;2022-11-20T06:16:55;1.58;;;0.70;;
53479;SDS011;56133;51.012;-1.648;2022-11-20T06:19:21;8.65;;;1.20;;
53479;SDS011;56133;51.012;-1.648;2022-11-20T06:21:47;3.50;;;1.10;;
53479;SDS011;56133;51.012;-1.648;2022-11-20T06:24:14;7.82;;;2.08;;
53479;SDS011;56133;51.012;-1.648;2022-11-20T06:26:39;12.88;;;2.13;;
53479;SDS011;56133;51.012;-1.648;2022-11-20T06:29:04;11.73;;;1.95;;
53479;SDS011;56133;51.012;-1.648;2022-11-20T06:31:30;12.15;;;2.33;;
53479;SDS011;56133;51.012;-1.648;2022-11-20T06:33:59;11.65;;;2.30;;
53479;SDS011;56133;51.012;-1.648;2022-11-20T06:36:25;13.38;;;2.28;;
53479;SDS011;56133;51.012;-1.648;2022-11-20T06:38:50;7.93;;;2.10;;
53479;SDS011;56133;51.012;-1.648;2022-11-20T06:41:17;10.45;;;2.13;;
53479;SDS011;56133;51.012;-1.648;2022-11-20T06:43:45;5.80;;;1.75;;
53479;SDS011;56133;51.012;-1.648;2022-11-20T06:46:11;11.68;;;2.40;;
53479;SDS011;56133;51.012;-1.648;2022-11-20T06:48:38;11.52;;;2.22;;
53479;SDS011;56133;51.012;-1.648;2022-11-20T06:51:05;12.05;;;2.15;;
53479;SDS011;56133;51.012;-1.648;2022-11-20T06:53:32;12.88;;;2.28;;
53479;SDS011;56133;51.012;-1.648;2022-11-20T06:55:58;9.77;;;2.58;;
53479;SDS011;56133;51.012;-1.648;2022-11-20T06:58:26;15.50;;;2.55;;
53479;SDS011;56133;51.012;-1.648;2022-11-20T07:00:53;16.05;;;2.80;;
53479;SDS011;56133;51.012;-1.648;2022-11-20T07:03:18;23.73;;;3.33;;
53479;SDS011;56133;51.012;-1.648;2022-11-20T07:05:44;19.33;;;2.92;;
53479;SDS011;56133;51.012;-1.648;2022-11-20T07:08:11;17.10;;;3.58;;
53479;SDS011;56133;51.012;-1.648;2022-11-20T07:10:37;23.90;;;4.00;;
53479;SDS011;56133;51.012;-1.648;2022-11-20T07:13:03;28.25;;;4.38;;
53479;SDS011;56133;51.012;-1.648;2022-11-20T07:15:28;15.32;;;3.30;;
53479;SDS011;56133;51.012;-1.648;2022-11-20T07:17:54;14.10;;;3.30;;
53479;SDS011;56133;51.012;-1.648;2022-11-20T07:20:20;16.60;;;3.60;;
53479;SDS011;56133;51.012;-1.648;2022-11-20T07:22:46;19.92;;;3.55;;
53479;SDS011;56133;51.012;-1.648;2022-11-20T07:25:11;20.38;;;4.30;;
53479;SDS011;56133;51.012;-1.648;2022-11-20T07:27:36;18.30;;;4.00;;
53479;SDS011;56133;51.012;-1.648;2022-11-20T07:30:03;26.55;;;3.92;;
53479;SDS011;56133;51.012;-1.648;2022-11-20T07:32:29;24.38;;;4.00;;
53479;SDS011;56133;51.012;-1.648;2022-11-20T07:34:54;25.08;;;3.65;;
53479;SDS011;56133;51.012;-1.648;2022-11-20T07:37:20;24.08;;;3.92;;
53479;SDS011;56133;51.012;-1.648;2022-11-20T07:39:45;19.70;;;3.70;;
53479;SDS011;56133;51.012;-1.648;2022-11-20T07:42:11;25.85;;;4.00;;
53479;SDS011;56133;51.012;-1.648;2022-11-20T07:44:37;28.33;;;3.75;;
53479;SDS011;56133;51.012;-1.648;2022-11-20T07:47:02;23.70;;;3.92;;
53479;SDS011;56133;51.012;-1.648;2022-11-20T07:49:28;24.70;;;4.35;;
53479;SDS011;56133;51.012;-1.648;2022-11-20T07:51:53;25.63;;;4.65;;
53479;SDS011;56133;51.012;-1.648;2022-11-20T07:54:19;26.73;;;4.43;;
53479;SDS011;56133;51.012;-1.648;2022-11-20T07:56:45;26.45;;;4.38;;
53479;SDS011;56133;51.012;-1.648;2022-11-20T07:59:11;29.50;;;4.75;;
53479;SDS011;56133;51.012;-1.648;2022-11-20T08:01:39;33.58;;;4.38;;
53479;SDS011;56133;51.012;-1.648;2022-11-20T08:04:05;25.60;;;4.65;;
53479;SDS011;56133;51.012;-1.648;2022-11-20T08:06:31;35.35;;;4.85;;
53479;SDS011;56133;51.012;-1.648;2022-11-20T08:08:57;35.53;;;4.85;;
53479;SDS011;56133;51.012;-1.648;2022-11-20T08:11:22;32.00;;;4.65;;
53479;SDS011;56133;51.012;-1.648;2022-11-20T08:14:06;32.53;;;4.32;;
53479;SDS011;56133;51.012;-1.648;2022-11-20T08:16:38;30.67;;;4.70;;
53479;SDS011;56133;51.012;-1.648;2022-11-20T08:19:05;35.90;;;4.72;;
53479;SDS011;56133;51.012;-1.648;2022-11-20T08:21:31;40.47;;;5.75;;
53479;SDS011;56133;51.012;-1.648;2022-11-20T08:23:57;38.33;;;5.60;;
53479;SDS011;56133;51.012;-1.648;2022-11-20T08:26:23;39.60;;;5.38;;
53479;SDS011;56133;51.012;-1.648;2022-11-20T08:28:52;36.08;;;5.85;;
53479;SDS011;56133;51.012;-1.648;2022-11-20T08:31:19;43.58;;;5.38;;
53479;SDS011;56133;51.012;-1.648;2022-11-20T08:33:45;38.50;;;4.75;;
53479;SDS011;56133;51.012;-1.648;2022-11-20T08:36:11;44.03;;;5.55;;
53479;SDS011;56133;51.012;-1.648;2022-11-20T08:38:37;45.22;;;5.07;;
53479;SDS011;56133;51.012;-1.648;2022-11-20T08:41:09;39.17;;;4.97;;
53479;SDS011;56133;51.012;-1.648;2022-11-20T08:43:58;36.10;;;4.60;;
53479;SDS011;56133;51.012;-1.648;2022-11-20T08:46:25;34.33;;;4.68;;
53479;SDS011;56133;51.012;-1.648;2022-11-20T08:48:52;41.22;;;5.30;;
53479;SDS011;56133;51.012;-1.648;2022-11-20T08:51:18;40.13;;;5.10;;
53479;SDS011;56133;51.012;-1.648;2022-11-20T08:53:45;41.13;;;5.50;;
53479;SDS011;56133;51.012;-1.648;2022-11-20T08:56:13;38.33;;;5.47;;
53479;SDS011;56133;51.012;-1.648;2022-11-20T08:58:39;38.08;;;4.93;;
53479;SDS011;56133;51.012;-1.648;2022-11-20T09:01:04;40.92;;;5.05;;
53479;SDS011;56133;51.012;-1.648;2022-11-20T09:03:30;46.80;;;5.63;;
53479;SDS011;56133;51.012;-1.648;2022-11-20T09:05:59;39.15;;;6.03;;
53479;SDS011;56133;51.012;-1.648;2022-11-20T09:08:25;44.17;;;5.88;;
53479;SDS011;56133;51.012;-1.648;2022-11-20T09:10:52;44.85;;;5.55;;
53479;SDS011;56133;51.012;-1.648;2022-11-20T09:13:19;41.00;;;9.90;;
53479;SDS011;56133;51.012;-1.648;2022-11-20T09:15:45;52.63;;;15.05;;
53479;SDS011;56133;51.012;-1.648;2022-11-20T09:18:10;55.55;;;13.13;;
53479;SDS011;56133;51.012;-1.648;2022-11-20T09:20:35;58.08;;;18.00;;
53479;SDS011;56133;51.012;-1.648;2022-11-20T09:23:01;78.90;;;27.00;;
53479;SDS011;56133;51.012;-1.648;2022-11-20T09:25:27;56.00;;;12.63;;
53479;SDS011;56133;51.012;-1.648;2022-11-20T09:27:56;42.63;;;7.45;;
53479;SDS011;56133;51.012;-1.648;2022-11-20T09:30:22;53.97;;;14.02;;
53479;SDS011;56133;51.012;-1.648;2022-11-20T09:32:47;57.40;;;15.27;;
53479;SDS011;56133;51.012;-1.648;2022-11-20T09:35:13;64.90;;;13.65;;
53479;SDS011;56133;51.012;-1.648;2022-11-20T09:37:39;46.13;;;11.00;;
53479;SDS011;56133;51.012;-1.648;2022-11-20T09:40:05;54.45;;;12.45;;
53479;SDS011;56133;51.012;-1.648;2022-11-20T09:50:54;43.22;;;8.45;;
53479;SDS011;56133;51.012;-1.648;2022-11-20T09:55:56;40.05;;;8.27;;
53479;SDS011;56133;51.012;-1.648;2022-11-20T10:00:56;48.17;;;9.30;;
53479;SDS011;56133;51.012;-1.648;2022-11-20T10:03:37;53.35;;;11.43;;
53479;SDS011;56133;51.012;-1.648;2022-11-20T10:06:04;54.88;;;14.45;;
53479;SDS011;56133;51.012;-1.648;2022-11-20T10:30:09;58.83;;;14.13;;
53479;SDS011;56133;51.012;-1.648;2022-11-20T10:32:42;45.95;;;8.90;;
53479;SDS011;56133;51.012;-1.648;2022-11-20T10:38:00;52.08;;;7.65;;
53479;SDS011;56133;51.012;-1.648;2022-11-20T10:43:24;31.70;;;8.18;;
53479;SDS011;56133;51.012;-1.648;2022-11-20T10:48:30;40.05;;;8.60;;
53479;SDS011;56133;51.012;-1.648;2022-11-20T10:53:57;39.33;;;8.80;;
53479;SDS011;56133;51.012;-1.648;2022-11-20T10:59:15;35.05;;;9.77;;
53479;SDS011;56133;51.012;-1.648;2022-11-20T11:01:45;38.72;;;6.63;;
53479;SDS011;56133;51.012;-1.648;2022-11-20T11:06:51;31.67;;;8.55;;
53479;SDS011;56133;51.012;-1.648;2022-11-20T11:09:21;40.33;;;9.52;;
53479;SDS011;56133;51.012;-1.648;2022-11-20T11:11:57;36.30;;;8.40;;
53479;SDS011;56133;51.012;-1.648;2022-11-20T11:14:22;28.67;;;7.53;;
53479;SDS011;56133;51.012;-1.648;2022-11-20T11:16:56;36.13;;;10.80;;
53479;SDS011;56133;51.012;-1.648;2022-11-20T11:19:22;34.40;;;7.10;;
53479;SDS011;56133;51.012;-1.648;2022-11-20T11:21:51;28.92;;;5.93;;
53479;SDS011;56133;51.012;-1.648;2022-11-20T11:24:28;48.08;;;7.03;;
53479;SDS011;56133;51.012;-1.648;2022-11-20T11:26:59;39.08;;;6.05;;
53479;SDS011;56133;51.012;-1.648;2022-11-20T11:29:32;28.58;;;5.78;;
53479;SDS011;56133;51.012;-1.648;2022-11-20T11:32:14;32.97;;;5.70;;
53479;SDS011;56133;51.012;-1.648;2022-11-20T11:34:42;30.30;;;6.10;;
53479;SDS011;56133;51.012;-1.648;2022-11-20T11:37:16;35.78;;;5.30;;
53479;SDS011;56133;51.012;-1.648;2022-11-20T11:39:46;30.95;;;5.97;;
53479;SDS011;56133;51.012;-1.648;2022-11-20T11:42:13;36.17;;;5.60;;
53479;SDS011;56133;51.012;-1.648;2022-11-20T11:44:46;30.35;;;5.00;;
53479;SDS011;56133;51.012;-1.648;2022-11-20T11:47:37;26.20;;;4.95;;
53479;SDS011;56133;51.012;-1.648;2022-11-20T11:58:20;47.03;;;9.48;;
53479;SDS011;56133;51.012;-1.648;2022-11-20T12:06:29;32.95;;;6.43;;
53479;SDS011;56133;51.012;-1.648;2022-11-20T12:09:08;25.90;;;5.85;;
53479;SDS011;56133;51.012;-1.648;2022-11-20T12:11:40;33.78;;;6.45;;
53479;SDS011;56133;51.012;-1.648;2022-11-20T12:14:19;31.88;;;5.40;;
53479;SDS011;56133;51.012;-1.648;2022-11-20T12:16:49;31.55;;;5.30;;
53479;SDS011;56133;51.012;-1.648;2022-11-20T12:19:17;28.63;;;5.32;;
53479;SDS011;56133;51.012;-1.648;2022-11-20T12:24:33;33.63;;;5.28;;
53479;SDS011;56133;51.012;-1.648;2022-11-20T12:30:00;19.00;;;3.70;;
53479;SDS011;56133;51.012;-1.648;2022-11-20T12:40:28;22.98;;;4.30;;
53479;SDS011;56133;51.012;-1.648;2022-11-20T12:43:07;34.08;;;6.65;;
53479;SDS011;56133;51.012;-1.648;2022-11-20T12:48:42;34.08;;;4.80;;
53479;SDS011;56133;51.012;-1.648;2022-11-20T12:51:23;26.73;;;4.35;;
53479;SDS011;56133;51.012;-1.648;2022-11-20T13:02:50;24.40;;;3.90;;
53479;SDS011;56133;51.012;-1.648;2022-11-20T13:08:11;29.58;;;4.35;;
53479;SDS011;56133;51.012;-1.648;2022-11-20T13:13:24;25.90;;;5.20;;
53479;SDS011;56133;51.012;-1.648;2022-11-20T13:16:06;25.00;;;3.92;;
53479;SDS011;56133;51.012;-1.648;2022-11-20T13:18:42;30.35;;;4.68;;
53479;SDS011;56133;51.012;-1.648;2022-11-20T13:21:13;26.52;;;4.90;;
53479;SDS011;56133;51.012;-1.648;2022-11-20T13:23:40;22.05;;;4.10;;
53479;SDS011;56133;51.012;-1.648;2022-11-20T13:26:06;25.67;;;3.92;;
53479;SDS011;56133;51.012;-1.648;2022-11-20T13:28:45;27.40;;;4.22;;
53479;SDS011;56133;51.012;-1.648;2022-11-20T13:31:31;21.90;;;4.22;;
53479;SDS011;56133;51.012;-1.648;2022-11-20T13:33:59;32.45;;;4.75;;
53479;SDS011;56133;51.012;-1.648;2022-11-20T13:36:27;29.00;;;4.30;;
53479;SDS011;56133;51.012;-1.648;2022-11-20T13:38:55;27.60;;;5.07;;
53479;SDS011;56133;51.012;-1.648;2022-11-20T13:43:59;22.08;;;4.40;;
53479;SDS011;56133;51.012;-1.648;2022-11-20T13:46:37;20.30;;;4.20;;
53479;SDS011;56133;51.012;-1.648;2022-11-20T13:49:07;20.08;;;3.05;;
53479;SDS011;56133;51.012;-1.648;2022-11-20T14:02:13;21.23;;;4.75;;
53479;SDS011;56133;51.012;-1.648;2022-11-20T14:04:44;19.75;;;3.53;;
53479;SDS011;56133;51.012;-1.648;2022-11-20T14:07:12;21.73;;;5.40;;
53479;SDS011;56133;51.012;-1.648;2022-11-20T14:09:38;14.73;;;2.63;;
53479;SDS011;56133;51.012;-1.648;2022-11-20T14:12:12;16.15;;;4.13;;
53479;SDS011;56133;51.012;-1.648;2022-11-20T14:14:47;16.88;;;2.97;;
53479;SDS011;56133;51.012;-1.648;2022-11-20T14:17:22;16.20;;;3.40;;
53479;SDS011;56133;51.012;-1.648;2022-11-20T14:19:53;17.25;;;2.40;;
53479;SDS011;56133;51.012;-1.648;2022-11-20T14:22:26;9.73;;;2.05;;
53479;SDS011;56133;51.012;-1.648;2022-11-20T14:27:43;12.30;;;1.52;;
53479;SDS011;56133;51.012;-1.648;2022-11-20T14:30:17;7.30;;;1.10;;
53479;SDS011;56133;51.012;-1.648;2022-11-20T14:32:45;7.70;;;0.90;;
53479;SDS011;56133;51.012;-1.648;2022-11-20T14:35:18;9.30;;;2.38;;
53479;SDS011;56133;51.012;-1.648;2022-11-20T14:37:55;7.22;;;1.00;;
53479;SDS011;56133;51.012;-1.648;2022-11-20T14:40:29;5.60;;;1.08;;
53479;SDS011;56133;51.012;-1.648;2022-11-20T14:43:04;17.90;;;1.40;;
53479;SDS011;56133;51.012;-1.648;2022-11-20T14:45:44;6.50;;;1.02;;
53479;SDS011;56133;51.012;-1.648;2022-11-20T14:48:13;9.93;;;1.13;;
53479;SDS011;56133;51.012;-1.648;2022-11-20T14:50:40;9.32;;;1.27;;
53479;SDS011;56133;51.012;-1.648;2022-11-20T14:53:05;19.25;;;2.05;;
53479;SDS011;56133;51.012;-1.648;2022-11-20T14:55:32;8.40;;;1.15;;
53479;SDS011;56133;51.012;-1.648;2022-11-20T14:58:01;19.77;;;2.20;;
53479;SDS011;56133;51.012;-1.648;2022-11-20T15:00:29;9.45;;;1.90;;
53479;SDS011;56133;51.012;-1.648;2022-11-20T15:02:56;15.23;;;2.08;;
53479;SDS011;56133;51.012;-1.648;2022-11-20T15:05:23;6.50;;;1.20;;
53479;SDS011;56133;51.012;-1.648;2022-11-20T15:08:12;9.82;;;2.03;;
53479;SDS011;56133;51.012;-1.648;2022-11-20T15:10:37;12.35;;;2.42;;
53479;SDS011;56133;51.012;-1.648;2022-11-20T15:13:10;22.67;;;7.55;;
53479;SDS011;56133;51.012;-1.648;2022-11-20T15:15:48;22.60;;;6.70;;
53479;SDS011;56133;51.012;-1.648;2022-11-20T15:18:26;42.53;;;14.27;;
53479;SDS011;56133;51.012;-1.648;2022-11-20T15:20:52;14.23;;;5.18;;
53479;SDS011;56133;51.012;-1.648;2022-11-20T15:23:20;20.23;;;5.22;;
53479;SDS011;56133;51.012;-1.648;2022-11-20T15:25:46;12.95;;;4.13;;
53479;SDS011;56133;51.012;-1.648;2022-11-20T15:28:19;13.98;;;2.88;;
53479;SDS011;56133;51.012;-1.648;2022-11-20T15:30:48;6.65;;;1.55;;
53479;SDS011;56133;51.012;-1.648;2022-11-20T15:33:15;9.63;;;2.63;;
53479;SDS011;56133;51.012;-1.648;2022-11-20T15:35:41;11.45;;;1.63;;
53479;SDS011;56133;51.012;-1.648;2022-11-20T15:38:07;11.05;;;2.08;;
53479;SDS011;56133;51.012;-1.648;2022-11-20T15:40:33;12.13;;;1.63;;
53479;SDS011;56133;51.012;-1.648;2022-11-20T15:42:58;12.75;;;2.20;;
53479;SDS011;56133;51.012;-1.648;2022-11-20T15:45:46;12.48;;;1.40;;
53479;SDS011;56133;51.012;-1.648;2022-11-20T15:48:37;15.13;;;4.18;;
53479;SDS011;56133;51.012;-1.648;2022-11-20T15:53:37;19.90;;;5.60;;
53479;SDS011;56133;51.012;-1.648;2022-11-20T15:56:03;22.63;;;9.82;;
53479;SDS011;56133;51.012;-1.648;2022-11-20T15:58:28;24.67;;;7.47;;
53479;SDS011;56133;51.012;-1.648;2022-11-20T16:00:54;12.25;;;3.28;;
53479;SDS011;56133;51.012;-1.648;2022-11-20T16:03:20;25.25;;;8.27;;
53479;SDS011;56133;51.012;-1.648;2022-11-20T16:05:45;16.20;;;4.82;;
53479;SDS011;56133;51.012;-1.648;2022-11-20T16:08:11;12.75;;;2.47;;
53479;SDS011;56133;51.012;-1.648;2022-11-20T16:10:37;15.45;;;4.53;;
53479;SDS011;56133;51.012;-1.648;2022-11-20T16:13:03;20.60;;;2.80;;
53479;SDS011;56133;51.012;-1.648;2022-11-20T16:15:51;16.40;;;3.45;;
53479;SDS011;56133;51.012;-1.648;2022-11-20T16:18:20;14.30;;;2.40;;
53479;SDS011;56133;51.012;-1.648;2022-11-20T16:20:48;23.17;;;6.15;;
53479;SDS011;56133;51.012;-1.648;2022-11-20T16:23:15;16.08;;;2.65;;
53479;SDS011;56133;51.012;-1.648;2022-11-20T16:25:42;22.08;;;3.28;;
53479;SDS011;56133;51.012;-1.648;2022-11-20T16:28:07;17.08;;;2.67;;
53479;SDS011;56133;51.012;-1.648;2022-11-20T16:30:33;19.13;;;3.50;;